Terminal Aerodrome Forecast
Issued by NWS Shreveport, LA

Home | Current Version | Previous Version | Text Only | Print | Product List | Glossary On
Versions: 1 2 3 4 5 6 7 8 9 10 11 12 13 14
000
FTUS44 KSHV 292300
TAFMLU
TAF
KMLU 292340Z 3000/3024 05007KT P6SM FEW050
     FM300100 05004KT P6SM SKC
     FM301000 VRB03KT P6SM BKN250
     FM301500 13005KT P6SM BKN250
     FM301700 07005KT P6SM FEW040 SCT150 BKN250=

USA.gov is the U.S. government's official web portal to all federal, state and local government web resources and services.